Time;durP1;ratioP1;P1;durP2;ratioP2;P2;SDS_P1;SDS_P2;PMS_P1;PMS_P2;Temp;Humidity;BMP_temperature;BMP_pressure;BME280_temperature;BME280_humidity;BME280_pressure;Samples;Min_cycle;Max_cycle;Signal;HPM_P1;HPM_P2
2021/08/20 00:00:26;;;;;;;28.95;14.98;;;;;;;13.88;96.45;101622.97;5007649;28;20059;-81
2021/08/20 00:02:52;;;;;;;34.45;15.65;;;;;;;13.87;96.52;101626.47;4996982;28;20029;-79
2021/08/20 00:05:17;;;;;;;30.17;16.85;;;;;;;13.88;96.71;101626.47;5011033;28;20468;-86
2021/08/20 00:07:43;;;;;;;32.50;17.38;;;;;;;13.89;96.88;101614.13;5011593;28;20460;-85
2021/08/20 00:10:09;;;;;;;35.88;15.80;;;;;;;13.91;96.93;101613.28;4994333;28;20060;-80
2021/08/20 00:12:35;;;;;;;25.00;15.13;;;;;;;13.92;96.85;101619.50;5010093;28;20044;-89
2021/08/20 00:15:00;;;;;;;28.02;15.10;;;;;;;13.89;96.54;101614.13;5011089;28;20021;-82
2021/08/20 00:17:26;;;;;;;33.95;16.92;;;;;;;13.85;96.65;101607.91;5011955;28;20124;-82
2021/08/20 00:19:52;;;;;;;31.95;15.05;;;;;;;13.80;96.46;101609.59;5009438;28;20050;-79
2021/08/20 00:22:18;;;;;;;28.20;15.68;;;;;;;13.77;96.40;101602.50;5011200;28;20373;-89
2021/08/20 00:24:44;;;;;;;32.65;16.35;;;;;;;13.73;96.93;101603.31;5012914;28;20385;-91
2021/08/20 00:27:09;;;;;;;30.38;15.85;;;;;;;13.70;97.05;101608.56;5008261;28;20520;-84
2021/08/20 00:29:34;;;;;;;42.72;18.95;;;;;;;13.68;97.36;101601.47;5008776;28;20056;-78
2021/08/20 00:32:00;;;;;;;35.17;18.85;;;;;;;13.68;97.44;101601.47;4990459;28;20082;-83
2021/08/20 00:34:26;;;;;;;33.60;17.33;;;;;;;13.65;97.68;101603.19;5001181;28;20064;-88
2021/08/20 00:36:52;;;;;;;34.03;18.92;;;;;;;13.63;97.75;101598.72;4999593;28;20030;-88
2021/08/20 00:39:39;;;;;;;41.97;18.85;;;;;;;13.60;97.85;101601.34;5007071;28;20489;-83
2021/08/20 00:42:06;;;;;;;34.67;18.13;;;;;;;13.57;97.88;101601.28;5000735;28;20036;-86
2021/08/20 00:44:34;;;;;;;44.65;21.52;;;;;;;13.53;98.13;101603.00;5003293;28;20396;-81
2021/08/20 00:47:00;;;;;;;40.67;19.77;;;;;;;13.54;98.27;101601.22;4965978;28;20033;-79
2021/08/20 00:49:29;;;;;;;41.53;20.40;;;;;;;13.56;98.59;101605.69;4991560;28;20042;-82
2021/08/20 00:52:15;;;;;;;53.45;22.92;;;;;;;13.59;98.93;101611.03;4996223;28;20046;-84
2021/08/20 00:54:41;;;;;;;59.85;24.80;;;;;;;13.63;99.15;101611.97;5001180;28;20021;-83
2021/08/20 00:57:26;;;;;;;55.22;23.70;;;;;;;13.64;99.47;101601.41;5008234;28;20036;-81
2021/08/20 00:59:52;;;;;;;54.10;23.48;;;;;;;13.66;99.64;101606.75;5002086;28;20041;-87
2021/08/20 01:02:17;;;;;;;58.97;24.40;;;;;;;13.66;99.80;101602.34;5008500;28;20022;-85
2021/08/20 01:04:43;;;;;;;46.28;20.33;;;;;;;13.65;99.78;101594.38;5012223;28;21214;-77
2021/08/20 01:07:09;;;;;;;51.65;20.58;;;;;;;13.65;99.70;101595.25;5007071;28;20030;-84
2021/08/20 01:09:36;;;;;;;51.55;21.33;;;;;;;13.66;99.65;101591.75;5010290;28;20029;-80
2021/08/20 01:12:02;;;;;;;52.60;21.77;;;;;;;13.69;99.66;101585.63;4994649;28;20034;-85
2021/08/20 01:14:53;;;;;;;54.92;22.80;;;;;;;13.74;99.45;101589.22;5010775;28;20026;-80
2021/08/20 01:17:18;;;;;;;53.65;22.63;;;;;;;13.78;99.82;101585.78;4995264;28;20041;-81
2021/08/20 01:19:44;;;;;;;63.50;24.55;;;;;;;13.87;100.00;101587.66;4995846;28;20392;-85
2021/08/20 01:22:12;;;;;;;63.75;24.98;;;;;;;13.91;100.00;101593.88;5014274;28;20033;-86
2021/08/20 01:24:39;;;;;;;77.25;27.45;;;;;;;13.99;100.00;101586.94;5015134;28;20033;-82
2021/08/20 01:27:04;;;;;;;81.18;26.83;;;;;;;14.04;100.00;101585.25;5012671;28;20120;-86
2021/08/20 01:29:50;;;;;;;74.75;27.48;;;;;;;14.11;100.00;101584.47;5013909;28;20139;-82
2021/08/20 01:32:15;;;;;;;60.38;24.27;;;;;;;14.12;100.00;101590.66;5013571;28;20034;-77
2021/08/20 01:34:41;;;;;;;67.53;26.45;;;;;;;14.14;100.00;101587.16;5014051;28;20066;-85
2021/08/20 01:37:06;;;;;;;70.95;28.20;;;;;;;14.19;100.00;101584.59;4996042;28;20475;-77
2021/08/20 01:39:32;;;;;;;60.10;27.45;;;;;;;14.26;100.00;101590.84;5013346;28;20042;-88
2021/08/20 01:41:57;;;;;;;72.78;30.17;;;;;;;14.31;100.00;101589.13;5004124;28;20028;-80
2021/08/20 01:44:23;;;;;;;74.10;28.95;;;;;;;14.37;100.00;101585.69;5014059;28;20032;-82
2021/08/20 01:46:48;;;;;;;63.60;26.20;;;;;;;14.41;100.00;101587.53;5014049;28;20105;-84
2021/08/20 01:49:14;;;;;;;59.25;27.10;;;;;;;14.44;100.00;101587.53;5014522;28;20398;-88
2021/08/20 01:51:39;;;;;;;61.40;27.33;;;;;;;14.46;100.00;101583.13;5014036;28;20029;-83
2021/08/20 01:54:05;;;;;;;59.33;24.63;;;;;;;14.46;100.00;101580.50;5015539;28;20038;-86
2021/08/20 01:56:50;;;;;;;59.92;27.75;;;;;;;14.46;100.00;101578.75;5014864;28;20025;-78
2021/08/20 01:59:16;;;;;;;66.10;26.70;;;;;;;14.46;100.00;101575.19;5013295;28;20403;-86
2021/08/20 02:01:41;;;;;;;53.70;24.98;;;;;;;14.46;100.00;101577.84;5009262;28;20038;-80
2021/08/20 02:04:07;;;;;;;61.58;28.00;;;;;;;14.46;100.00;101580.50;5010305;28;20030;-87
2021/08/20 02:06:33;;;;;;;65.68;25.98;;;;;;;14.47;100.00;101577.91;5014526;28;20030;-86
2021/08/20 02:08:59;;;;;;;60.75;25.08;;;;;;;14.47;100.00;101577.91;5010491;28;20046;-81
2021/08/20 02:11:24;;;;;;;68.82;26.95;;;;;;;14.51;100.00;101584.09;4997704;28;20437;-85
2021/08/20 02:13:50;;;;;;;70.80;27.42;;;;;;;14.57;100.00;101577.97;5010068;28;20064;-85
2021/08/20 02:16:18;;;;;;;73.93;29.70;;;;;;;14.63;100.00;101584.28;5014179;28;20038;-88
2021/08/20 02:18:43;;;;;;;68.63;27.00;;;;;;;14.68;100.00;101589.66;4998554;28;20054;-84
2021/08/20 02:21:09;;;;;;;74.25;29.20;;;;;;;14.74;100.00;101586.16;5014942;28;20101;-78
2021/08/20 02:23:36;;;;;;;72.10;26.92;;;;;;;14.78;100.00;101588.84;5002156;28;20030;-82
2021/08/20 02:26:02;;;;;;;68.28;25.52;;;;;;;14.83;100.00;101592.44;5012557;28;20042;-78
2021/08/20 02:28:30;;;;;;;70.13;25.98;;;;;;;14.83;100.00;101587.16;5011225;28;20112;-82
2021/08/20 02:30:55;;;;;;;63.85;25.23;;;;;;;14.83;100.00;101586.28;5011926;28;20140;-83
2021/08/20 02:33:21;;;;;;;68.18;25.10;;;;;;;14.84;100.00;101588.94;5011067;28;20547;-83
2021/08/20 02:35:46;;;;;;;71.20;24.42;;;;;;;14.83;100.00;101584.50;5010375;28;20030;-86
2021/08/20 02:38:14;;;;;;;80.30;26.77;;;;;;;14.83;100.00;101576.56;5011792;28;20518;-82
2021/08/20 02:40:39;;;;;;;65.20;25.17;;;;;;;14.82;100.00;101574.75;5012001;28;20399;-79
2021/08/20 02:43:05;;;;;;;74.18;25.08;;;;;;;14.81;100.00;101575.66;5011223;28;20117;-84
2021/08/20 02:45:30;;;;;;;63.30;24.85;;;;;;;14.83;100.00;101565.94;5010979;28;20021;-85
2021/08/20 02:47:56;;;;;;;71.57;25.40;;;;;;;14.83;100.00;101571.25;5011533;28;20117;-78
2021/08/20 02:50:21;;;;;;;69.90;24.27;;;;;;;14.83;100.00;101576.56;5005238;28;20392;-85
2021/08/20 02:52:47;;;;;;;74.32;23.38;;;;;;;14.82;100.00;101580.06;5000183;28;20029;-86
2021/08/20 02:55:12;;;;;;;75.43;26.48;;;;;;;14.82;100.00;101572.13;5012346;28;20354;-84
2021/08/20 02:57:38;;;;;;;81.97;25.50;;;;;;;14.84;100.00;101567.75;5011290;28;20037;-82
2021/08/20 03:00:07;;;;;;;93.13;27.40;;;;;;;14.90;100.00;101566.03;5010946;28;20041;-81
2021/08/20 03:02:33;;;;;;;89.47;27.05;;;;;;;14.91;100.00;101554.56;5010503;28;20056;-88
2021/08/20 03:04:58;;;;;;;85.47;26.33;;;;;;;14.96;100.00;101558.13;5010880;28;20469;-80
2021/08/20 03:07:24;;;;;;;89.22;25.50;;;;;;;14.96;100.00;101550.19;4999581;28;20026;-88
2021/08/20 03:09:49;;;;;;;97.93;28.33;;;;;;;14.97;100.00;101549.31;5012172;28;20399;-84
2021/08/20 03:12:15;;;;;;;90.57;25.20;;;;;;;14.93;100.00;101556.34;4995039;28;20461;-79
2021/08/20 03:14:40;;;;;;;81.50;24.38;;;;;;;14.91;100.00;101552.78;5011957;28;20471;-80
2021/08/20 03:17:05;;;;;;;91.55;26.02;;;;;;;14.91;100.00;101562.53;5010025;28;20036;-82
2021/08/20 03:19:32;;;;;;;84.13;25.33;;;;;;;14.91;100.00;101562.53;5010843;28;20030;-80
2021/08/20 03:21:57;;;;;;;65.43;21.40;;;;;;;14.89;100.00;101559.81;5023835;28;20536;-82
2021/08/20 03:24:23;;;;;;;99.85;28.20;;;;;;;14.89;100.00;101561.59;5019688;28;20026;-83
2021/08/20 03:26:49;;;;;;;79.03;24.17;;;;;;;14.91;100.00;101567.81;4994924;28;20071;-83
2021/08/20 03:29:15;;;;;;;104.90;28.08;;;;;;;14.92;100.00;101562.53;5002355;28;20038;-86
2021/08/20 03:31:44;;;;;;;106.45;29.38;;;;;;;14.91;100.00;101563.41;5012727;28;20061;-87
2021/08/20 03:34:10;;;;;;;108.97;28.25;;;;;;;14.88;100.00;101557.16;5010153;28;20149;-80
2021/08/20 03:36:56;;;;;;;98.47;27.27;;;;;;;14.83;100.00;101552.72;5007737;28;20114;-79
2021/08/20 03:39:23;;;;;;;98.85;27.70;;;;;;;14.76;100.00;101558.81;5010734;28;20120;-84
2021/08/20 03:41:49;;;;;;;94.10;25.77;;;;;;;14.74;100.00;101560.56;5010343;28;20079;-87
2021/08/20 03:44:14;;;;;;;106.00;27.42;;;;;;;14.70;100.00;101568.47;5010461;28;20022;-76
2021/08/20 03:46:40;;;;;;;99.55;26.30;;;;;;;14.63;100.00;101568.38;5007589;28;20022;-77
2021/08/20 03:49:25;;;;;;;95.03;26.08;;;;;;;14.57;100.00;101572.69;5012242;28;20099;-88
2021/08/20 03:51:51;;;;;;;100.75;27.63;;;;;;;14.56;100.00;101568.28;5006841;28;20033;-78
2021/08/20 03:54:36;;;;;;;93.20;25.30;;;;;;;14.49;100.00;101565.53;4998567;28;20026;-87
2021/08/20 03:57:02;;;;;;;98.40;25.13;;;;;;;14.43;100.00;101565.47;5005260;28;20031;-86
2021/08/20 03:59:27;;;;;;;83.78;24.17;;;;;;;14.37;100.00;101576.00;5002983;28;20025;-82
2021/08/20 04:01:52;;;;;;;95.85;26.15;;;;;;;14.31;100.00;101570.59;5022839;28;20018;-85
2021/08/20 04:04:18;;;;;;;102.35;25.52;;;;;;;14.24;100.00;101574.94;5024371;28;20022;-85
2021/08/20 04:06:43;;;;;;;97.72;25.33;;;;;;;14.18;100.00;101579.28;4978994;28;20491;-88
2021/08/20 04:09:09;;;;;;;124.35;30.27;;;;;;;14.15;100.00;101574.81;4997236;28;20057;-89
2021/08/20 04:11:34;;;;;;;105.15;26.30;;;;;;;14.09;100.00;101575.59;5010580;28;20034;-82
2021/08/20 04:14:03;;;;;;;117.53;28.75;;;;;;;14.09;100.00;101575.59;5010476;28;20022;-83
2021/08/20 04:16:49;;;;;;;107.13;28.80;;;;;;;14.05;100.00;101576.44;5010470;28;20037;-80
2021/08/20 04:19:15;;;;;;;103.30;25.30;;;;;;;14.02;100.00;101579.03;5010936;28;20046;-81
2021/08/20 04:22:00;;;;;;;96.35;26.23;;;;;;;13.99;100.00;101577.25;5008034;28;20083;-80
2021/08/20 04:24:26;;;;;;;116.63;25.95;;;;;;;13.97;100.00;101575.44;5011643;28;20103;-84
2021/08/20 04:26:51;;;;;;;95.70;25.23;;;;;;;13.95;100.00;101577.19;5002880;28;20034;-83
2021/08/20 04:29:18;;;;;;;102.47;25.38;;;;;;;13.95;100.00;101582.47;5010815;28;20030;-82
2021/08/20 04:31:44;;;;;;;91.80;24.10;;;;;;;13.95;100.00;101583.34;5011800;28;20037;-84
2021/08/20 04:34:10;;;;;;;116.55;26.65;;;;;;;14.01;100.00;101585.19;5010020;28;20048;-82
2021/08/20 04:36:35;;;;;;;107.70;25.55;;;;;;;14.03;100.00;101586.13;5013634;28;20057;-78
2021/08/20 04:39:21;;;;;;;106.07;25.35;;;;;;;14.05;100.00;101594.09;5012750;28;20061;-82
2021/08/20 04:41:46;;;;;;;104.93;25.70;;;;;;;14.05;100.00;101594.97;5011164;28;20029;-81
2021/08/20 04:44:12;;;;;;;124.30;29.08;;;;;;;14.13;100.00;101593.34;5024361;28;20034;-79
2021/08/20 04:46:57;;;;;;;116.43;28.40;;;;;;;14.22;100.00;101603.16;4996416;28;20098;-78
2021/08/20 04:49:23;;;;;;;116.22;26.70;;;;;;;14.26;100.00;101604.09;5012492;28;20484;-86
2021/08/20 04:51:48;;;;;;;109.90;25.63;;;;;;;14.35;100.00;101606.84;4999859;28;20036;-78
2021/08/20 04:54:14;;;;;;;124.15;29.98;;;;;;;14.49;100.00;101613.22;5010829;28;20034;-83
2021/08/20 04:56:59;;;;;;;137.43;30.00;;;;;;;14.68;100.00;101608.19;5013964;28;20022;-79
2021/08/20 04:59:27;;;;;;;136.07;32.65;;;;;;;14.83;100.00;101613.66;5023795;28;20033;-87
2021/08/20 05:01:52;;;;;;;140.93;32.65;;;;;;;14.98;100.00;101612.06;5005709;28;20054;-79
2021/08/20 05:04:18;;;;;;;129.70;31.27;;;;;;;15.09;100.00;101615.69;5007850;28;20482;-77
2021/08/20 05:06:43;;;;;;;123.72;31.95;;;;;;;15.21;100.00;101606.97;4998904;28;20065;-80
2021/08/20 05:09:09;;;;;;;117.03;27.75;;;;;;;15.28;100.00;101605.28;5014637;28;20468;-83
2021/08/20 05:11:36;;;;;;;102.43;26.17;;;;;;;15.29;100.00;101610.59;5013943;28;20480;-86
2021/08/20 05:14:22;;;;;;;102.10;25.05;;;;;;;15.32;100.00;101609.72;5004563;28;20042;-83
2021/08/20 05:16:48;;;;;;;100.80;24.83;;;;;;;15.34;100.00;101613.28;5001359;28;20075;-84
2021/08/20 05:19:16;;;;;;;85.68;22.92;;;;;;;15.33;100.00;101616.81;5010933;28;20022;-91
2021/08/20 05:21:43;;;;;;;87.30;22.75;;;;;;;15.31;100.00;101621.22;5001594;28;20049;-77
2021/08/20 05:24:09;;;;;;;74.68;20.70;;;;;;;15.31;100.00;101626.50;5003229;28;20022;-89
2021/08/20 05:26:34;;;;;;;80.65;23.48;;;;;;;15.33;100.00;101627.44;5008465;28;20026;-83
2021/08/20 05:29:00;;;;;;;83.53;21.83;;;;;;;15.36;100.00;101626.56;4988531;28;20396;-78
2021/08/20 05:31:25;;;;;;;75.25;20.15;;;;;;;15.40;100.00;101633.69;5008224;28;20044;-86
2021/08/20 05:33:51;;;;;;;78.38;21.98;;;;;;;15.45;100.00;101626.63;4997498;28;20049;-84
2021/08/20 05:36:16;;;;;;;74.40;20.38;;;;;;;15.51;100.00;101630.22;5016381;28;20029;-79
2021/08/20 05:38:42;;;;;;;77.43;21.85;;;;;;;15.58;100.00;101636.47;5014790;28;20026;-89
2021/08/20 05:41:07;;;;;;;85.18;22.00;;;;;;;15.73;100.00;101641.03;5004731;28;20042;-77
2021/08/20 05:43:53;;;;;;;63.03;19.05;;;;;;;15.83;100.00;101637.59;5018880;28;20029;-92
2021/08/20 05:46:19;;;;;;;63.67;19.30;;;;;;;15.93;100.00;101648.31;4997736;28;20042;-79
2021/08/20 05:48:45;;;;;;;61.70;20.05;;;;;;;16.00;100.00;101639.50;5012464;28;20472;-84
2021/08/20 05:51:11;;;;;;;59.13;19.10;;;;;;;16.05;100.00;101637.75;5010631;28;20025;-82
2021/08/20 05:53:56;;;;;;;56.00;18.17;;;;;;;16.05;100.00;101631.53;4993530;28;20057;-79
2021/08/20 05:56:41;;;;;;;48.97;15.68;;;;;;;16.10;100.00;101636.03;5032059;28;20398;-91
2021/08/20 05:59:08;;;;;;;49.97;15.32;;;;;;;16.17;100.00;101632.53;5018880;28;20089;-84
2021/08/20 06:01:34;;;;;;;43.67;15.18;;;;;;;16.22;100.00;101640.50;4988538;28;20030;-84
2021/08/20 06:03:59;;;;;;;36.78;13.75;;;;;;;16.28;100.00;101645.00;5010375;28;20391;-78
2021/08/20 06:06:25;;;;;;;39.85;13.43;;;;;;;16.29;100.00;101652.06;4994135;28;20060;-82
2021/08/20 06:08:51;;;;;;;28.17;11.75;;;;;;;16.29;100.00;101645.00;5020450;28;20037;-79
2021/08/20 06:11:17;;;;;;;31.38;12.65;;;;;;;16.35;100.00;101646.78;5003569;28;20030;-87
2021/08/20 06:13:43;;;;;;;26.00;11.55;;;;;;;16.46;100.00;101642.41;5001460;28;20030;-91
2021/08/20 06:16:09;;;;;;;21.38;10.15;;;;;;;16.51;100.00;101646.00;5010719;28;20025;-80
2021/08/20 06:18:35;;;;;;;22.55;9.98;;;;;;;16.54;100.00;101647.78;5017187;28;20036;-86
2021/08/20 06:21:00;;;;;;;25.45;9.73;;;;;;;16.59;100.00;101647.78;5004949;28;20046;-80
2021/08/20 06:23:26;;;;;;;20.52;9.27;;;;;;;16.69;100.00;101650.50;5007774;28;20442;-86
2021/08/20 06:25:52;;;;;;;17.92;8.13;;;;;;;16.94;100.00;101652.38;5003718;28;20438;-77
2021/08/20 06:28:17;;;;;;;15.23;6.15;;;;;;;17.36;99.34;101648.03;5006276;28;20029;-77
2021/08/20 06:30:46;;;;;;;8.88;4.70;;;;;;;17.94;96.66;101652.53;5010205;28;20034;-81
2021/08/20 06:33:32;;;;;;;11.38;4.72;;;;;;;18.28;92.62;101633.81;4989685;28;20076;-84
2021/08/20 06:36:17;;;;;;;8.65;3.75;;;;;;;18.95;89.64;101636.25;5015724;28;20034;-81
2021/08/20 06:38:42;;;;;;;11.88;3.80;;;;;;;19.14;87.68;101637.00;5003195;28;20163;-79
2021/08/20 06:41:12;;;;;;;8.15;3.90;;;;;;;19.27;87.26;101643.16;4983116;28;20036;-82
2021/08/20 06:43:37;;;;;;;10.20;4.00;;;;;;;19.55;86.49;101644.72;4999348;28;20542;-82
2021/08/20 06:46:03;;;;;;;8.40;3.58;;;;;;;19.83;84.83;101632.94;5003351;28;20116;-83
2021/08/20 06:48:28;;;;;;;8.57;4.82;;;;;;;20.03;84.97;101630.09;5010709;28;20413;-79
2021/08/20 06:50:54;;;;;;;7.45;4.80;;;;;;;19.89;84.37;101646.25;4981952;28;20050;-87
2021/08/20 06:53:19;;;;;;;9.82;5.30;;;;;;;19.53;85.19;101645.63;5002660;28;20117;-79
2021/08/20 06:55:45;;;;;;;13.20;6.88;;;;;;;19.29;86.67;101649.38;5001821;28;20030;-79
2021/08/20 06:58:31;;;;;;;15.50;8.55;;;;;;;18.95;87.98;101657.56;5012982;28;20030;-84
2021/08/20 07:00:56;;;;;;;14.23;8.73;;;;;;;19.17;87.35;101656.56;4982833;28;20034;-82
2021/08/20 07:03:22;;;;;;;16.90;9.35;;;;;;;19.21;86.84;101660.13;5007360;28;20034;-77
2021/08/20 07:05:47;;;;;;;13.60;9.73;;;;;;;19.27;87.50;101672.53;5010004;28;20095;-82
2021/08/20 07:08:13;;;;;;;18.25;9.60;;;;;;;19.32;87.46;101673.38;5008141;28;20138;-79
2021/08/20 07:10:38;;;;;;;15.93;9.18;;;;;;;19.25;86.65;101668.97;4993162;28;20150;-79
2021/08/20 07:13:04;;;;;;;16.80;9.43;;;;;;;19.13;87.21;101665.47;4998932;28;20090;-78
2021/08/20 07:15:29;;;;;;;17.40;8.63;;;;;;;18.89;87.96;101673.63;4994799;28;20031;-82
2021/08/20 07:17:55;;;;;;;13.25;8.38;;;;;;;18.71;88.11;101676.31;5007332;28;20030;-76
2021/08/20 07:20:20;;;;;;;20.13;9.57;;;;;;;18.56;88.72;101673.72;5005499;28;20041;-80
2021/08/20 07:22:46;;;;;;;19.52;9.50;;;;;;;18.54;88.88;101670.16;5010214;28;20029;-83
2021/08/20 07:25:12;;;;;;;14.18;9.07;;;;;;;18.50;88.89;101666.63;5005854;28;20026;-80
2021/08/20 07:27:38;;;;;;;19.42;11.25;;;;;;;18.58;89.60;101668.38;5013100;28;20018;-89
2021/08/20 07:30:05;;;;;;;20.50;10.23;;;;;;;18.67;88.77;101663.88;4999777;28;20038;-86
2021/08/20 07:32:31;;;;;;;20.15;9.77;;;;;;;18.80;88.62;101667.41;5001409;28;20483;-81
2021/08/20 07:34:57;;;;;;;20.88;9.48;;;;;;;19.10;88.91;101673.50;5000463;28;20046;-88
2021/08/20 07:37:22;;;;;;;18.88;9.00;;;;;;;18.98;86.53;101668.25;4999438;28;20018;-86
2021/08/20 07:39:48;;;;;;;21.70;9.45;;;;;;;18.82;87.18;101673.59;5000281;28;20030;-77
2021/08/20 07:42:14;;;;;;;14.32;8.85;;;;;;;18.90;87.72;101680.75;5004133;28;20038;-78
2021/08/20 07:44:43;;;;;;;17.77;8.57;;;;;;;18.91;86.98;101672.72;4994051;28;20022;-85
2021/08/20 07:47:09;;;;;;;16.58;8.15;;;;;;;18.91;86.59;101675.41;4999362;28;20034;-85
2021/08/20 07:49:34;;;;;;;18.55;7.43;;;;;;;18.95;87.77;101684.25;5004092;28;20026;-79
2021/08/20 07:52:00;;;;;;;17.35;7.55;;;;;;;18.90;87.61;101680.75;5003090;28;20024;-76
2021/08/20 07:54:25;;;;;;;17.63;8.60;;;;;;;18.97;87.80;101677.13;4994054;28;20044;-76
2021/08/20 07:56:51;;;;;;;15.95;7.50;;;;;;;19.10;86.85;101684.19;4993226;28;20051;-88
2021/08/20 07:59:16;;;;;;;17.20;7.53;;;;;;;19.29;85.54;101684.06;5004600;28;20027;-82
2021/08/20 08:01:42;;;;;;;14.25;7.65;;;;;;;19.46;84.65;101676.81;4999834;28;20102;-81
2021/08/20 08:04:08;;;;;;;13.50;7.10;;;;;;;19.67;86.17;101680.25;4996419;28;20124;-79
2021/08/20 08:06:35;;;;;;;12.68;5.95;;;;;;;19.78;84.24;101682.81;4998738;28;20040;-91
2021/08/20 08:09:00;;;;;;;11.95;6.30;;;;;;;19.88;82.72;101685.44;5001490;28;20056;-85
2021/08/20 08:11:31;;;;;;;14.27;6.63;;;;;;;19.95;82.95;101683.59;4997983;28;20454;-77
2021/08/20 08:14:02;;;;;;;12.02;5.93;;;;;;;20.05;83.34;101689.75;5008005;28;20392;-80
2021/08/20 08:16:48;;;;;;;14.05;6.25;;;;;;;20.15;80.46;101685.22;5007223;28;20014;-91
2021/08/20 08:19:13;;;;;;;13.63;6.72;;;;;;;20.26;81.29;101685.09;4995315;28;20446;-88
2021/08/20 08:21:39;;;;;;;12.80;6.18;;;;;;;20.44;80.49;101686.69;4999197;28;20026;-81
2021/08/20 08:24:05;;;;;;;15.93;6.78;;;;;;;20.37;79.76;101684.09;4998456;28;20049;-80
2021/08/20 08:26:30;;;;;;;11.88;5.63;;;;;;;20.51;79.84;101691.03;5001987;28;20063;-85
2021/08/20 08:28:56;;;;;;;11.43;5.55;;;;;;;20.43;79.40;101683.13;4996217;28;20038;-80
2021/08/20 08:31:30;;;;;;;11.30;5.35;;;;;;;20.56;78.93;101697.22;5008471;28;20036;-75
2021/08/20 08:33:55;;;;;;;11.23;5.70;;;;;;;20.53;76.94;101679.44;4997219;28;20187;-87
2021/08/20 08:36:20;;;;;;;11.18;6.28;;;;;;;20.81;78.67;101695.19;5065846;28;20121;-86
2021/08/20 08:38:46;;;;;;;9.95;5.10;;;;;;;20.73;76.47;101686.38;4999194;28;20030;-83
2021/08/20 08:41:12;;;;;;;12.02;5.03;;;;;;;20.74;77.09;101693.50;4996838;28;20022;-75
2021/08/20 08:43:37;;;;;;;6.75;4.53;;;;;;;20.63;78.06;101698.06;4998445;28;20037;-82
2021/08/20 08:46:20;;;;;;;13.80;5.10;;;;;;;20.35;78.10;101698.38;4999499;28;20045;-85
2021/08/20 08:48:46;;;;;;;7.28;4.45;;;;;;;20.20;79.18;101702.09;5004207;28;20041;-86
2021/08/20 08:51:12;;;;;;;10.02;4.90;;;;;;;20.17;78.28;101704.75;4997817;28;20030;-87
2021/08/20 08:53:38;;;;;;;9.85;4.45;;;;;;;20.15;79.49;101712.81;4995664;28;20050;-81
2021/08/20 08:56:04;;;;;;;11.70;5.28;;;;;;;20.07;79.30;101703.09;4998840;28;20027;-84
2021/08/20 08:58:30;;;;;;;10.88;4.43;;;;;;;19.97;80.84;101707.66;4999078;28;20038;-79
2021/08/20 09:00:55;;;;;;;7.97;4.10;;;;;;;19.88;80.58;101706.78;5006033;28;20129;-80
2021/08/20 09:03:27;;;;;;;7.57;4.03;;;;;;;19.78;81.28;101705.09;4998594;28;20048;-86
2021/08/20 09:05:54;;;;;;;12.32;3.90;;;;;;;19.88;79.68;101701.44;4987406;28;20076;-81
2021/08/20 09:08:23;;;;;;;9.43;3.63;;;;;;;19.95;80.05;101702.28;5010082;28;20456;-79
2021/08/20 09:10:59;;;;;;;7.15;3.13;;;;;;;20.17;77.99;101697.66;4980031;28;20022;-81
2021/08/20 09:13:45;;;;;;;5.82;3.30;;;;;;;20.48;77.19;101697.34;5008555;28;20041;-79
2021/08/20 09:16:14;;;;;;;5.85;2.50;;;;;;;20.81;76.10;101695.19;5006094;28;20464;-84
2021/08/20 09:19:08;;;;;;;5.53;2.05;;;;;;;21.58;73.92;101695.06;4998173;28;20034;-81
2021/08/20 09:21:33;;;;;;;4.88;1.75;;;;;;;21.96;71.28;101694.44;4997867;28;20076;-80
2021/08/20 09:23:59;;;;;;;5.13;2.03;;;;;;;21.56;68.80;101685.25;4999882;28;20029;-79
2021/08/20 09:26:24;;;;;;;4.78;2.15;;;;;;;21.01;71.20;101696.72;4998443;28;20477;-83
2021/08/20 09:28:53;;;;;;;7.65;2.35;;;;;;;20.60;73.69;101711.47;5000287;28;20038;-82
2021/08/20 09:31:22;;;;;;;7.88;2.97;;;;;;;20.49;75.65;101711.59;4999441;28;20126;-87
2021/08/20 09:33:50;;;;;;;7.25;3.63;;;;;;;20.78;76.84;101705.94;4996122;28;20038;-79
2021/08/20 09:36:21;;;;;;;6.32;3.75;;;;;;;21.75;73.49;101706.38;4999114;28;20443;-80
2021/08/20 09:38:46;;;;;;;8.73;3.85;;;;;;;22.67;69.21;101701.16;5000342;28;20045;-78
2021/08/20 09:41:18;;;;;;;6.75;3.95;;;;;;;23.32;64.93;101693.53;5002328;28;20301;-86
2021/08/20 09:44:07;;;;;;;12.00;4.38;;;;;;;24.16;62.81;101687.91;4986691;28;20083;-85
2021/08/20 09:47:03;;;;;;;9.50;4.70;;;;;;;24.39;62.68;101702.50;5000398;28;20073;-82
2021/08/20 09:49:28;;;;;;;5.68;4.28;;;;;;;25.21;57.49;101687.56;5003732;28;20054;-82
2021/08/20 09:52:33;;;;;;;8.10;4.45;;;;;;;24.22;61.25;101695.78;4998669;28;20026;-80
2021/08/20 09:54:59;;;;;;;8.90;3.85;;;;;;;24.23;62.60;101697.56;5025196;28;20029;-84
2021/08/20 09:57:44;;;;;;;6.70;3.05;;;;;;;25.31;63.47;101704.31;5025132;28;20029;-86
2021/08/20 10:00:13;;;;;;;10.95;4.10;;;;;;;25.67;57.74;101684.38;5023781;28;20387;-83
2021/08/20 10:02:39;;;;;;;11.88;4.07;;;;;;;25.00;58.96;101685.53;5009748;28;20128;-87
2021/08/20 10:05:06;;;;;;;5.68;3.50;;;;;;;24.33;60.05;101692.81;4994209;28;20396;-82
2021/08/20 10:07:36;;;;;;;6.13;3.85;;;;;;;23.87;61.62;101694.88;5001073;28;20046;-81
2021/08/20 10:10:22;;;;;;;6.07;3.45;;;;;;;23.34;65.51;101713.19;4997595;28;20095;-84
2021/08/20 10:12:48;;;;;;;6.88;3.90;;;;;;;22.91;65.53;101712.28;5012791;28;20522;-79
2021/08/20 10:15:16;;;;;;;8.90;4.00;;;;;;;22.69;67.52;101723.50;5012074;28;20030;-80
2021/08/20 10:17:42;;;;;;;8.65;3.42;;;;;;;22.60;67.09;101720.09;5009577;28;20026;-81
2021/08/20 10:20:28;;;;;;;5.53;3.22;;;;;;;22.60;67.07;101730.81;5010588;28;20029;-79
2021/08/20 10:22:56;;;;;;;7.78;3.00;;;;;;;22.60;66.95;101718.31;4994840;28;20038;-77
2021/08/20 10:25:21;;;;;;;4.45;2.83;;;;;;;22.41;67.17;101723.16;5009877;28;20038;-87
2021/08/20 10:27:47;;;;;;;7.53;3.00;;;;;;;22.28;68.12;101726.94;4993505;28;20033;-84
2021/08/20 10:30:13;;;;;;;9.43;3.65;;;;;;;22.04;69.20;101735.38;5012637;28;20045;-85
2021/08/20 10:33:01;;;;;;;5.90;3.55;;;;;;;22.09;70.01;101734.41;4996341;28;20066;-85
2021/08/20 10:35:48;;;;;;;7.20;3.58;;;;;;;22.18;69.04;101736.94;5011935;28;20053;-89
2021/08/20 10:38:30;;;;;;;11.05;4.03;;;;;;;22.03;69.62;101738.06;5011365;28;20040;-88
2021/08/20 10:41:19;;;;;;;7.43;3.45;;;;;;;21.65;70.08;101736.88;5008418;28;20113;-81
2021/08/20 10:44:17;;;;;;;9.27;4.07;;;;;;;21.26;70.27;101745.47;4997716;28;20054;-85
2021/08/20 10:46:43;;;;;;;9.73;4.22;;;;;;;21.10;73.67;101755.47;4975535;28;20395;-88
2021/08/20 10:49:20;;;;;;;7.28;3.67;;;;;;;20.99;72.98;101752.06;5010219;28;20078;-79
2021/08/20 10:51:51;;;;;;;8.60;4.68;;;;;;;20.71;74.50;101760.38;5008750;28;20046;-81
2021/08/20 10:54:39;;;;;;;7.65;4.65;;;;;;;20.63;74.37;101748.84;5008725;28;20113;-85
2021/08/20 10:57:06;;;;;;;7.10;4.60;;;;;;;20.67;76.88;101755.94;4996983;28;20091;-77
2021/08/20 10:59:43;;;;;;;7.35;4.57;;;;;;;20.79;74.36;101753.16;5011485;28;20034;-84
2021/08/20 11:02:18;;;;;;;9.82;5.03;;;;;;;21.95;74.04;101753.38;5005182;28;20037;-89
2021/08/20 11:05:28;;;;;;;8.52;3.42;;;;;;;23.88;67.31;101749.53;5004046;28;20049;-82
2021/08/20 11:07:54;;;;;;;5.75;2.78;;;;;;;24.63;64.00;101748.53;5007703;28;21371;-83
2021/08/20 11:10:19;;;;;;;5.22;3.08;;;;;;;24.33;61.91;101734.97;5003973;28;20113;-86
2021/08/20 11:12:51;;;;;;;6.18;3.50;;;;;;;23.85;61.71;101734.38;4995042;28;20040;-86
2021/08/20 11:15:25;;;;;;;6.38;3.38;;;;;;;23.23;64.08;101753.72;5007249;28;20030;-85
2021/08/20 11:17:53;;;;;;;7.68;4.00;;;;;;;22.58;67.88;101754.13;5010129;28;20082;-87